createdAt,value
2018-10-16T00:02:10.630Z,77.24
2018-10-16T00:04:40.488Z,78.16
2018-10-16T00:07:10.413Z,77.87
2018-10-16T00:09:40.232Z,77.95
2018-10-16T00:12:10.059Z,78.29
2018-10-16T00:14:39.895Z,78.33
2018-10-16T00:17:09.750Z,78.49
2018-10-16T00:19:39.618Z,78.26
2018-10-16T00:22:09.523Z,78.22
2018-10-16T00:24:39.392Z,78.18
2018-10-16T00:27:09.203Z,78.12
2018-10-16T00:29:39.031Z,78.17
2018-10-16T00:32:08.896Z,78.22
2018-10-16T00:34:38.721Z,78.36
2018-10-16T00:37:08.569Z,78.30
2018-10-16T00:39:38.405Z,78.22
2018-10-16T00:42:08.228Z,78.66
2018-10-16T00:44:38.110Z,78.46
2018-10-16T00:47:07.940Z,78.58
2018-10-16T00:49:37.867Z,78.73
2018-10-16T00:52:07.667Z,78.53
2018-10-16T00:54:37.526Z,78.69
2018-10-16T00:57:07.395Z,78.56
2018-10-16T00:59:37.242Z,78.53
2018-10-16T01:02:07.095Z,78.56
2018-10-16T01:04:36.965Z,78.24
2018-10-16T01:07:06.846Z,78.29
2018-10-16T01:09:36.739Z,78.17
2018-10-16T01:12:06.816Z,78.65
2018-10-16T01:14:36.610Z,78.84
2018-10-16T01:17:06.640Z,78.79
2018-10-16T01:19:36.475Z,78.58
2018-10-16T01:22:06.581Z,78.56
2018-10-16T01:24:36.457Z,78.83
2018-10-16T01:27:06.296Z,79.04
2018-10-16T01:29:36.159Z,78.88
2018-10-16T01:32:06.365Z,79.05
2018-10-16T01:34:36.308Z,78.92
2018-10-16T01:37:06.127Z,79.07
2018-10-16T01:39:35.944Z,79.01
2018-10-16T01:42:05.895Z,78.78
2018-10-16T01:44:35.732Z,78.64
2018-10-16T01:47:05.748Z,79.25
2018-10-16T01:49:35.617Z,79.44
2018-10-16T01:52:05.431Z,79.21
2018-10-16T01:54:35.264Z,79.02
2018-10-16T01:57:05.230Z,78.85
2018-10-16T01:59:35.146Z,79.16
2018-10-16T02:02:05.607Z,79.13
2018-10-16T02:04:35.513Z,78.59
2018-10-16T02:07:05.340Z,78.54
2018-10-16T02:09:35.204Z,78.42
2018-10-16T02:12:05.223Z,78.64
2018-10-16T02:14:35.076Z,79.39
2018-10-16T02:17:04.850Z,79.43
2018-10-16T02:19:34.674Z,79.02
2018-10-16T02:22:04.451Z,79.28
2018-10-16T02:24:34.049Z,79.27
2018-10-16T02:27:03.796Z,79.19
2018-10-16T02:29:33.567Z,79.47
2018-10-16T02:32:03.335Z,79.21
2018-10-16T02:34:33.033Z,79.61
2018-10-16T02:37:02.796Z,79.65
2018-10-16T02:39:32.567Z,79.87
2018-10-16T02:42:02.347Z,79.34
2018-10-16T02:44:32.153Z,79.29
2018-10-16T02:47:01.943Z,79.22
2018-10-16T02:49:31.759Z,79.91
2018-10-16T02:52:01.546Z,79.63
2018-10-16T02:54:31.350Z,79.82
2018-10-16T02:57:01.052Z,79.85
2018-10-16T02:59:30.839Z,79.82
2018-10-16T03:02:00.647Z,79.94
2018-10-16T03:04:30.426Z,80.10
2018-10-16T03:07:00.237Z,80.19
2018-10-16T03:09:29.954Z,79.85
2018-10-16T03:11:59.759Z,79.35
2018-10-16T03:14:29.668Z,79.23
2018-10-16T03:17:00.295Z,79.38
2018-10-16T03:19:30.202Z,79.60
2018-10-16T03:22:00.084Z,79.09
2018-10-16T03:24:30.013Z,79.80
2018-10-16T03:26:59.872Z,80.27
2018-10-16T03:29:29.915Z,79.87
2018-10-16T03:31:59.813Z,79.68
2018-10-16T03:34:29.723Z,79.42
2018-10-16T03:36:59.566Z,79.56
2018-10-16T03:39:29.400Z,79.81
2018-10-16T03:41:59.161Z,79.90
2018-10-16T03:44:28.979Z,80.00
2018-10-16T03:46:58.830Z,79.58
2018-10-16T03:49:28.698Z,79.80
2018-10-16T03:51:58.430Z,79.52
2018-10-16T03:54:28.360Z,79.32
2018-10-16T03:56:58.117Z,79.54
2018-10-16T03:59:28.075Z,79.90
2018-10-16T04:01:57.875Z,80.23
2018-10-16T04:04:27.756Z,80.50
2018-10-16T04:06:57.639Z,79.95
2018-10-16T04:09:27.455Z,79.99
2018-10-16T04:11:57.251Z,80.13
2018-10-16T04:14:27.334Z,80.19
2018-10-16T04:16:57.226Z,79.68
2018-10-16T04:19:27.078Z,79.00
2018-10-16T04:21:56.811Z,79.56
2018-10-16T04:24:26.664Z,80.48
2018-10-16T04:26:56.528Z,80.03
2018-10-16T04:29:26.574Z,80.16
2018-10-16T04:31:56.754Z,80.41
2018-10-16T04:34:26.606Z,80.87
2018-10-16T04:36:56.491Z,80.93
2018-10-16T04:39:26.471Z,80.67
2018-10-16T04:41:56.481Z,80.76
2018-10-16T04:44:26.426Z,80.40
2018-10-16T04:46:56.150Z,81.22
2018-10-16T04:49:25.927Z,80.56
2018-10-16T04:51:55.847Z,85.78
2018-10-16T04:54:25.757Z,85.35
2018-10-16T04:56:55.579Z,82.57
2018-10-16T04:59:25.367Z,79.58
2018-10-16T05:01:55.174Z,78.75
2018-10-16T05:04:24.992Z,78.48
2018-10-16T05:06:55.287Z,79.34
2018-10-16T05:09:25.161Z,79.13
2018-10-16T05:11:56.007Z,78.71
2018-10-16T05:14:25.889Z,79.12
2018-10-16T05:16:55.729Z,79.57
2018-10-16T05:19:25.452Z,79.34
2018-10-16T05:21:55.257Z,79.41
2018-10-16T05:24:25.033Z,79.47
2018-10-16T05:26:54.892Z,79.72
2018-10-16T05:29:24.634Z,80.61
2018-10-16T05:31:54.459Z,80.06
2018-10-16T05:34:24.351Z,80.47
2018-10-16T05:36:55.134Z,80.01
2018-10-16T05:39:24.897Z,79.73
2018-10-16T05:41:54.766Z,79.57
2018-10-16T05:44:24.710Z,79.94
2018-10-16T05:46:54.593Z,79.97
2018-10-16T05:49:24.544Z,79.73
2018-10-16T05:51:54.369Z,79.30
2018-10-16T05:54:24.332Z,79.46
2018-10-16T05:56:54.310Z,79.01
2018-10-16T05:59:24.044Z,78.49
2018-10-16T06:01:53.889Z,78.46
2018-10-16T06:04:23.814Z,77.89
2018-10-16T06:06:53.578Z,77.85
2018-10-16T06:09:23.415Z,77.78
2018-10-16T06:11:53.186Z,77.52
2018-10-16T06:14:23.015Z,81.55
2018-10-16T06:16:52.950Z,79.49
2018-10-16T06:19:22.900Z,76.96
2018-10-16T06:21:52.661Z,77.81
2018-10-16T06:24:22.567Z,77.33
2018-10-16T06:26:52.455Z,77.15
2018-10-16T06:29:22.205Z,77.10
2018-10-16T06:31:52.073Z,76.77
2018-10-16T06:34:21.932Z,76.09
2018-10-16T06:36:51.841Z,76.08
2018-10-16T06:39:21.658Z,75.65
2018-10-16T06:41:51.550Z,75.15
2018-10-16T06:44:21.503Z,74.35
2018-10-16T06:46:51.376Z,73.59
2018-10-16T06:49:21.234Z,73.58
2018-10-16T06:51:51.101Z,73.61
2018-10-16T06:54:20.943Z,73.08
2018-10-16T06:56:50.918Z,73.08
2018-10-16T06:59:20.711Z,72.60
2018-10-16T07:01:50.879Z,72.42
2018-10-16T07:04:20.752Z,72.01
2018-10-16T07:06:50.669Z,71.76
2018-10-16T07:09:20.512Z,70.89
2018-10-16T07:11:50.470Z,70.69
2018-10-16T07:14:20.413Z,70.33
2018-10-16T07:16:50.363Z,70.06
2018-10-16T07:19:20.281Z,69.54
2018-10-16T07:21:50.228Z,70.01
2018-10-16T07:24:20.192Z,69.81
2018-10-16T07:26:50.017Z,69.25
2018-10-16T07:29:19.929Z,68.85
2018-10-16T07:31:49.838Z,68.57
2018-10-16T07:34:19.818Z,68.53
2018-10-16T07:36:49.697Z,69.42
2018-10-16T07:39:19.553Z,69.85
2018-10-16T07:41:49.520Z,68.66
2018-10-16T07:44:19.435Z,68.02
2018-10-16T07:46:49.287Z,67.44
2018-10-16T07:49:19.181Z,66.70
2018-10-16T07:51:49.061Z,66.91
2018-10-16T07:54:19.190Z,66.85
2018-10-16T07:56:49.232Z,66.50
2018-10-16T07:59:19.123Z,66.54
2018-10-16T08:01:48.960Z,66.04
2018-10-16T08:04:18.982Z,65.55
2018-10-16T08:06:48.848Z,65.59
2018-10-16T08:09:18.755Z,64.30
2018-10-16T08:11:49.816Z,63.41
2018-10-16T08:14:20.774Z,63.23
2018-10-16T08:16:51.339Z,62.53
2018-10-16T08:19:21.243Z,61.87
2018-10-16T08:21:51.100Z,60.85
2018-10-16T08:24:21.048Z,60.54
2018-10-16T08:26:50.914Z,59.71
2018-10-16T08:29:20.831Z,58.38
2018-10-16T08:31:50.738Z,57.52
2018-10-16T08:34:20.662Z,57.46
2018-10-16T08:36:50.518Z,57.43
2018-10-16T08:39:26.649Z,56.30
2018-10-16T08:44:20.619Z,55.85
2018-10-16T08:47:02.192Z,55.38
2018-10-16T08:49:43.257Z,53.52
2018-10-16T08:52:13.339Z,52.48
2018-10-16T08:54:43.994Z,52.66
2018-10-16T08:57:14.814Z,53.90
2018-10-16T08:59:45.048Z,53.17
2018-10-16T09:02:14.862Z,52.53
2018-10-16T09:04:45.006Z,52.56
2018-10-16T09:07:15.224Z,53.20
2018-10-16T09:09:45.774Z,51.45
2018-10-16T09:12:16.549Z,50.69
2018-10-16T09:14:46.834Z,50.71
2018-10-16T09:17:17.728Z,49.65
2018-10-16T09:19:47.605Z,49.60
2018-10-16T09:22:17.400Z,49.98
2018-10-16T09:24:47.475Z,50.13
2018-10-16T09:27:18.160Z,50.17
2018-10-16T09:29:48.729Z,48.78
2018-10-16T09:32:19.733Z,48.85
2018-10-16T09:34:50.477Z,49.66
2018-10-16T09:37:21.230Z,50.72
2018-10-16T09:39:52.403Z,50.24
2018-10-16T09:42:23.172Z,49.87
2018-10-16T09:44:54.109Z,49.57
2018-10-16T09:47:23.887Z,50.23
2018-10-16T09:49:54.584Z,49.40
2018-10-16T09:52:26.226Z,48.04
2018-10-16T09:54:56.981Z,47.11
2018-10-16T09:57:26.832Z,46.56
2018-10-16T09:59:57.045Z,45.01
2018-10-16T10:02:27.918Z,46.16
2018-10-16T10:04:58.572Z,45.89
2018-10-16T10:07:29.586Z,46.74
2018-10-16T10:09:59.417Z,46.00
2018-10-16T10:12:29.654Z,46.10
2018-10-16T10:14:59.956Z,46.86
2018-10-16T10:17:30.006Z,46.94
2018-10-16T10:20:00.353Z,48.07
2018-10-16T10:22:30.904Z,47.96
2018-10-16T10:25:02.533Z,48.46
2018-10-16T10:27:33.225Z,48.33
2018-10-16T10:30:03.231Z,46.79
2018-10-16T10:32:33.179Z,46.81
2018-10-16T10:35:03.469Z,45.57
2018-10-16T10:37:33.351Z,46.24
2018-10-16T10:40:03.329Z,46.99
2018-10-16T10:42:34.153Z,47.68
2018-10-16T10:45:04.971Z,48.25
2018-10-16T10:47:35.633Z,48.93
2018-10-16T10:50:07.668Z,48.79
2018-10-16T10:52:38.612Z,48.31
2018-10-16T10:55:09.383Z,49.14
2018-10-16T10:57:40.960Z,49.50
2018-10-16T11:00:14.237Z,49.34
2018-10-16T11:02:46.369Z,49.62
2018-10-16T11:05:17.219Z,50.09
2018-10-16T11:07:47.855Z,50.82
2018-10-16T11:10:20.029Z,50.55
2018-10-16T11:12:50.345Z,50.59
2018-10-16T11:15:20.746Z,51.31
2018-10-16T11:17:51.396Z,51.98
2018-10-16T11:20:21.694Z,51.61
2018-10-16T11:22:51.728Z,51.95
2018-10-16T11:25:22.174Z,52.46
2018-10-16T11:27:53.030Z,52.55
2018-10-16T11:30:23.756Z,53.25
2018-10-16T11:32:54.204Z,53.94
2018-10-16T11:35:24.573Z,54.12
2018-10-16T11:37:54.929Z,53.84
2018-10-16T11:40:25.944Z,54.04
2018-10-16T11:42:57.544Z,55.30
2018-10-16T11:45:27.351Z,55.74
2018-10-16T11:47:57.239Z,54.77
2018-10-16T11:50:27.563Z,55.47
2018-10-16T11:52:58.993Z,55.56
2018-10-16T11:55:29.707Z,55.61
2018-10-16T11:58:00.083Z,55.28
2018-10-16T12:00:32.467Z,55.98
2018-10-16T12:03:02.134Z,56.34
2018-10-16T12:05:32.092Z,56.35
2018-10-16T12:08:03.209Z,57.44
2018-10-16T12:10:33.172Z,57.38
2018-10-16T12:13:03.156Z,58.43
2018-10-16T12:15:33.940Z,58.82
2018-10-16T12:18:16.561Z,58.40
2018-10-16T12:21:06.332Z,58.89
2018-10-16T12:23:36.310Z,59.95
2018-10-16T12:26:07.323Z,60.36
2018-10-16T12:28:37.091Z,60.71
2018-10-16T12:31:08.241Z,60.69
2018-10-16T12:33:38.109Z,60.96
2018-10-16T12:36:09.102Z,60.97
2018-10-16T12:38:40.195Z,61.10
2018-10-16T12:41:10.372Z,61.38
2018-10-16T12:43:41.183Z,61.34
2018-10-16T12:46:11.317Z,61.10
2018-10-16T12:48:42.348Z,61.60
2018-10-16T12:51:13.954Z,61.48
2018-10-16T12:53:44.413Z,61.45
2018-10-16T12:56:15.660Z,60.86
2018-10-16T12:58:46.124Z,61.19
2018-10-16T13:01:16.221Z,61.55
2018-10-16T13:03:46.496Z,61.13
2018-10-16T13:06:16.282Z,61.31
2018-10-16T13:08:46.548Z,61.48
2018-10-16T13:11:17.297Z,61.55
2018-10-16T13:13:48.531Z,61.78
2018-10-16T13:16:19.223Z,61.40
2018-10-16T13:18:49.691Z,62.17
2018-10-16T13:21:20.831Z,62.04
2018-10-16T13:23:53.144Z,62.15
2018-10-16T13:26:23.381Z,62.64
2018-10-16T13:28:53.174Z,62.04
2018-10-16T13:31:23.374Z,62.36
2018-10-16T13:33:53.873Z,62.29
2018-10-16T13:36:23.662Z,62.61
2018-10-16T13:38:54.444Z,62.40
2018-10-16T13:41:24.509Z,62.73
2018-10-16T13:43:55.262Z,62.79
2018-10-16T13:46:26.068Z,63.31
2018-10-16T13:48:56.599Z,63.47
2018-10-16T13:51:26.397Z,63.50
2018-10-16T13:53:57.116Z,63.78
2018-10-16T13:56:27.919Z,63.49
2018-10-16T13:58:58.770Z,63.74
2018-10-16T14:01:29.491Z,63.72
2018-10-16T14:03:59.904Z,64.80
2018-10-16T14:06:30.137Z,65.08
2018-10-16T14:09:00.686Z,65.30
2018-10-16T14:11:31.608Z,65.61
2018-10-16T14:14:03.462Z,64.73
2018-10-16T14:16:34.349Z,64.90
2018-10-16T14:19:05.421Z,64.86
2018-10-16T14:21:35.307Z,65.35
2018-10-16T14:24:05.492Z,65.43
2018-10-16T14:26:36.131Z,65.79
2018-10-16T14:29:06.978Z,65.46
2018-10-16T14:31:37.660Z,66.05
2018-10-16T14:34:08.029Z,65.92
2018-10-16T14:36:37.849Z,66.20
2018-10-16T14:39:09.977Z,66.31
2018-10-16T14:41:39.802Z,66.38
2018-10-16T14:44:10.787Z,66.47
2018-10-16T14:46:41.778Z,66.24
2018-10-16T14:49:12.874Z,66.35
2018-10-16T14:51:43.498Z,66.64
2018-10-16T14:54:13.959Z,67.47
2018-10-16T14:56:44.200Z,67.26
2018-10-16T14:59:14.006Z,67.58
2018-10-16T15:01:43.794Z,67.22
2018-10-16T15:04:14.038Z,67.67
2018-10-16T15:06:44.286Z,67.36
2018-10-16T15:09:15.161Z,67.64
2018-10-16T15:11:45.749Z,67.65
2018-10-16T15:14:17.264Z,67.59
2018-10-16T15:16:49.120Z,67.58
2018-10-16T15:19:19.552Z,67.83
2018-10-16T15:21:50.886Z,68.27
2018-10-16T15:24:22.577Z,68.55
2018-10-16T15:26:53.822Z,68.51
2018-10-16T15:29:24.146Z,69.10
2018-10-16T15:31:56.884Z,69.06
2018-10-16T15:34:29.258Z,69.73
2018-10-16T15:37:00.200Z,69.92
2018-10-16T15:39:30.869Z,69.41
2018-10-16T15:42:02.226Z,69.84
2018-10-16T15:44:32.647Z,69.92
2018-10-16T15:47:03.779Z,69.84
2018-10-16T15:49:33.539Z,70.52
2018-10-16T15:52:03.816Z,70.81
2018-10-16T15:54:33.553Z,70.82
2018-10-16T15:57:04.066Z,71.55
2018-10-16T15:59:33.825Z,72.10
2018-10-16T16:02:04.580Z,71.98
2018-10-16T16:04:34.877Z,72.73
2018-10-16T16:07:06.052Z,73.30
2018-10-16T16:09:35.919Z,73.59
2018-10-16T16:12:07.645Z,73.86
2018-10-16T16:14:37.408Z,73.95
2018-10-16T16:17:07.315Z,74.36
2018-10-16T16:19:37.757Z,74.49
2018-10-16T16:22:08.700Z,74.66
2018-10-16T16:24:39.730Z,75.87
2018-10-16T16:27:09.794Z,76.37
2018-10-16T16:29:40.518Z,76.70
2018-10-16T16:32:10.683Z,75.83
2018-10-16T16:34:41.023Z,75.79
2018-10-16T16:37:11.907Z,75.47
2018-10-16T16:39:43.333Z,76.23
2018-10-16T16:42:13.577Z,76.26
2018-10-16T16:44:44.136Z,76.31
2018-10-16T16:47:14.336Z,76.51
2018-10-16T16:49:44.664Z,76.99
2018-10-16T16:52:14.795Z,77.02
2018-10-16T16:54:45.180Z,77.21
2018-10-16T16:57:15.893Z,77.39
2018-10-16T16:59:46.096Z,78.01
2018-10-16T17:02:15.937Z,78.22
2018-10-16T17:04:46.916Z,78.13
2018-10-16T17:07:17.358Z,78.07
2018-10-16T17:09:47.519Z,78.61
2018-10-16T17:12:19.361Z,79.08
2018-10-16T17:14:49.833Z,79.04
2018-10-16T17:17:20.335Z,78.96
2018-10-16T17:19:51.270Z,79.34
2018-10-16T17:22:21.133Z,79.32
2018-10-16T17:24:53.449Z,79.62
2018-10-16T17:27:24.026Z,79.56
2018-10-16T17:29:53.897Z,79.67
2018-10-16T17:32:24.019Z,79.79
2018-10-16T17:34:54.819Z,80.09
2018-10-16T17:37:25.495Z,80.22
2018-10-16T17:39:56.194Z,80.04
2018-10-16T17:42:26.466Z,80.35
2018-10-16T17:44:58.017Z,80.46
2018-10-16T17:47:28.124Z,79.99
2018-10-16T17:49:58.315Z,80.15
2018-10-16T17:52:28.399Z,80.19
2018-10-16T17:54:58.660Z,81.52
2018-10-16T17:57:29.480Z,81.02
2018-10-16T17:59:59.643Z,79.96
2018-10-16T18:02:30.065Z,79.90
2018-10-16T18:05:00.607Z,80.46
2018-10-16T18:07:30.713Z,80.56
2018-10-16T18:10:02.146Z,79.92
2018-10-16T18:12:32.548Z,80.42
2018-10-16T18:15:05.739Z,80.49
2018-10-16T18:17:36.344Z,81.13
2018-10-16T18:20:08.562Z,81.27
2018-10-16T18:22:39.191Z,81.34
2018-10-16T18:25:10.699Z,81.84
2018-10-16T18:27:41.497Z,81.36
2018-10-16T18:30:12.589Z,81.24
2018-10-16T18:32:43.565Z,81.28
2018-10-16T18:35:13.931Z,81.91
2018-10-16T18:37:44.795Z,81.87
2018-10-16T18:40:15.446Z,81.75
2018-10-16T18:42:45.766Z,82.16
2018-10-16T18:45:17.333Z,82.37
2018-10-16T18:47:48.097Z,82.62
2018-10-16T18:50:19.053Z,82.88
2018-10-16T18:52:50.533Z,83.18
2018-10-16T18:55:21.648Z,82.30
2018-10-16T18:57:52.326Z,81.82
2018-10-16T19:00:25.000Z,83.71
2018-10-16T19:02:55.274Z,84.40
2018-10-16T19:05:25.780Z,84.18
2018-10-16T19:07:56.988Z,83.65
2018-10-16T19:10:27.418Z,83.18
2018-10-16T19:12:58.211Z,83.52
2018-10-16T19:15:28.576Z,83.04
2018-10-16T19:18:00.154Z,82.81
2018-10-16T19:20:30.539Z,82.59
2018-10-16T19:23:01.359Z,82.64
2018-10-16T19:25:31.786Z,81.69
2018-10-16T19:28:02.636Z,83.02
2018-10-16T19:30:33.738Z,84.32
2018-10-16T19:33:05.851Z,83.17
2018-10-16T19:35:36.244Z,81.85
2018-10-16T19:38:07.003Z,81.38
2018-10-16T19:40:37.299Z,80.55
2018-10-16T19:43:08.270Z,80.60
2018-10-16T19:45:39.018Z,80.76
2018-10-16T19:48:10.229Z,80.81
2018-10-16T19:50:41.137Z,82.10
2018-10-16T19:53:11.647Z,82.75
2018-10-16T19:55:45.048Z,83.54
2018-10-16T19:58:17.089Z,82.50
2018-10-16T20:00:48.669Z,82.90
2018-10-16T20:03:19.525Z,83.49
2018-10-16T20:05:51.895Z,81.68
2018-10-16T20:08:23.577Z,80.79
2018-10-16T20:10:55.007Z,80.39
2018-10-16T20:13:26.111Z,80.72
2018-10-16T20:15:56.633Z,80.51
2018-10-16T20:18:29.267Z,81.35
2018-10-16T20:21:00.136Z,82.05
2018-10-16T20:23:32.065Z,83.05
2018-10-16T20:26:02.545Z,82.92
2018-10-16T20:28:33.281Z,82.96
2018-10-16T20:31:03.660Z,82.73
2018-10-16T20:33:33.795Z,82.98
2018-10-16T20:36:04.258Z,82.96
2018-10-16T20:38:35.704Z,83.49
2018-10-16T20:41:05.989Z,83.24
2018-10-16T20:43:36.597Z,82.41
2018-10-16T20:46:07.295Z,81.72
2018-10-16T20:48:37.869Z,81.81
2018-10-16T20:51:07.620Z,82.55
2018-10-16T20:53:38.513Z,82.51
2018-10-16T20:56:09.266Z,82.85
2018-10-16T20:58:39.630Z,83.12
2018-10-16T21:01:10.544Z,82.88
2018-10-16T21:03:40.780Z,82.36
2018-10-16T21:06:11.505Z,82.43
2018-10-16T21:08:41.275Z,83.24
2018-10-16T21:11:11.320Z,83.54
2018-10-16T21:13:41.414Z,83.79
2018-10-16T21:16:13.010Z,82.64
2018-10-16T21:18:43.086Z,81.82
2018-10-16T21:21:14.464Z,82.06
2018-10-16T21:23:44.633Z,82.19
2018-10-16T21:26:14.494Z,81.57
2018-10-16T21:28:45.137Z,82.19
2018-10-16T21:31:15.949Z,82.03
2018-10-16T21:33:45.986Z,82.17
2018-10-16T21:36:15.987Z,81.61
2018-10-16T21:38:46.313Z,81.70
2018-10-16T21:41:17.971Z,82.24
2018-10-16T21:43:48.453Z,81.63
2018-10-16T21:46:18.157Z,81.87
2018-10-16T21:48:48.361Z,81.67
2018-10-16T21:51:18.901Z,82.49
2018-10-16T21:53:48.902Z,82.24
2018-10-16T21:56:19.776Z,81.89
2018-10-16T21:58:50.099Z,81.44
2018-10-16T22:01:25.343Z,81.87
2018-10-16T22:03:55.933Z,81.77
2018-10-16T22:06:26.477Z,81.86
2018-10-16T22:08:56.491Z,81.69
2018-10-16T22:11:27.110Z,81.95
2018-10-16T22:13:56.866Z,81.22
2018-10-16T22:16:28.182Z,81.70
2018-10-16T22:18:58.251Z,81.52
2018-10-16T22:21:28.182Z,81.47
2018-10-16T22:23:57.966Z,81.44
2018-10-16T22:26:27.745Z,81.43
2018-10-16T22:28:58.092Z,81.85
2018-10-16T22:31:27.924Z,82.11
2018-10-16T22:33:58.178Z,82.38
2018-10-16T22:36:28.341Z,82.44
2018-10-16T22:38:58.545Z,82.72
2018-10-16T22:41:28.377Z,82.69
2018-10-16T22:43:59.133Z,82.85
2018-10-16T22:46:29.569Z,82.33
2018-10-16T22:49:00.370Z,82.23
2018-10-16T22:51:31.138Z,82.18
2018-10-16T22:54:01.301Z,81.80
2018-10-16T22:56:31.033Z,82.00
2018-10-16T22:59:01.779Z,81.48
2018-10-16T23:01:32.940Z,81.74
2018-10-16T23:04:03.258Z,81.94
2018-10-16T23:06:34.377Z,82.21
2018-10-16T23:09:05.013Z,81.76
2018-10-16T23:11:35.295Z,81.71
2018-10-16T23:14:05.409Z,81.97
2018-10-16T23:16:36.730Z,82.32
2018-10-16T23:19:06.940Z,82.75
2018-10-16T23:21:37.046Z,82.64
2018-10-16T23:24:07.951Z,82.66
2018-10-16T23:26:38.443Z,82.51
2018-10-16T23:29:09.194Z,82.52
2018-10-16T23:31:40.199Z,82.68
2018-10-16T23:34:10.440Z,82.46
2018-10-16T23:36:40.852Z,82.51
2018-10-16T23:39:13.673Z,82.89
2018-10-16T23:41:43.946Z,82.90
2018-10-16T23:44:14.500Z,82.54
2018-10-16T23:46:44.911Z,82.51
2018-10-16T23:49:15.055Z,82.97
2018-10-16T23:51:44.783Z,82.88
2018-10-16T23:54:14.940Z,83.29
2018-10-16T23:56:45.256Z,83.26
2018-10-16T23:59:16.281Z,83.56
